createdAt,value
2023-02-18T00:00:13.881Z,93692.59
2023-02-18T00:03:16.878Z,93694.56
2023-02-18T00:06:26.159Z,93700.41
2023-02-18T00:09:29.652Z,93687.47
2023-02-18T00:12:33.793Z,93685.22
2023-02-18T00:15:37.675Z,93682.47
2023-02-18T00:18:41.709Z,93680.38
2023-02-18T00:21:45.663Z,93683.06
2023-02-18T00:24:49.491Z,93679.41
2023-02-18T00:27:53.548Z,93670.13
2023-02-18T00:30:57.333Z,93680.41
2023-02-18T00:34:01.465Z,93669.97
2023-02-18T00:37:05.328Z,93661.50
2023-02-18T00:40:09.932Z,93661.94
2023-02-18T00:43:12.896Z,93661.25
2023-02-18T00:46:16.724Z,93658.63
2023-02-18T00:49:19.738Z,93656.00
2023-02-18T00:52:23.024Z,93654.53
2023-02-18T00:55:25.906Z,93644.88
2023-02-18T00:58:30.081Z,93647.75
2023-02-18T01:01:35.777Z,93636.41
2023-02-18T01:04:39.349Z,93631.00
2023-02-18T01:07:43.095Z,93637.28
2023-02-18T01:10:49.896Z,93634.63
2023-02-18T01:13:54.102Z,93627.44
2023-02-18T01:16:57.536Z,93624.50
2023-02-18T01:20:01.479Z,93614.75
2023-02-18T01:23:06.872Z,93607.84
2023-02-18T01:26:12.056Z,93602.38
2023-02-18T01:29:15.098Z,93610.75
2023-02-18T01:32:19.302Z,93602.06
2023-02-18T01:35:23.255Z,93607.38
2023-02-18T01:38:26.517Z,93603.41
2023-02-18T01:41:29.516Z,93601.88
2023-02-18T01:44:34.840Z,93602.78
2023-02-18T01:47:37.830Z,93592.53
2023-02-18T01:50:53.754Z,93592.09
2023-02-18T01:54:03.787Z,93591.03
2023-02-18T01:57:17.426Z,93591.97
2023-02-18T02:00:24.252Z,93585.56
2023-02-18T02:03:28.582Z,93587.06
2023-02-18T02:06:31.890Z,93592.41
2023-02-18T02:09:36.080Z,93592.16
2023-02-18T02:12:43.438Z,93590.38
2023-02-18T02:16:01.048Z,93586.13
2023-02-18T02:19:32.772Z,93586.31
2023-02-18T02:22:44.579Z,93586.13
2023-02-18T02:26:02.508Z,93581.44
2023-02-18T02:29:46.143Z,93566.00
2023-02-18T02:33:12.285Z,93549.59
2023-02-18T02:36:22.113Z,93552.44
2023-02-18T02:39:33.929Z,93544.94
2023-02-18T02:42:47.034Z,93544.47
2023-02-18T02:45:59.484Z,93544.69
2023-02-18T02:49:07.404Z,93536.50
2023-02-18T02:52:31.537Z,93543.53
2023-02-18T02:55:35.100Z,93536.22
2023-02-18T02:58:39.342Z,93530.56
2023-02-18T03:02:03.057Z,93518.00
2023-02-18T03:05:11.925Z,93519.72
2023-02-18T03:08:21.446Z,93521.25
2023-02-18T03:11:25.562Z,93504.91
2023-02-18T03:14:33.304Z,93503.22
2023-02-18T03:17:43.425Z,93502.44
2023-02-18T03:21:01.554Z,93497.13
2023-02-18T03:24:23.781Z,93495.00
2023-02-18T03:27:44.038Z,93492.41
2023-02-18T03:30:55.846Z,93491.38
2023-02-18T03:34:10.304Z,93492.03
2023-02-18T03:37:15.725Z,93487.16
2023-02-18T03:40:19.525Z,93480.53
2023-02-18T03:43:22.879Z,93485.38
2023-02-18T03:46:25.903Z,93480.00
2023-02-18T03:49:29.225Z,93472.31
2023-02-18T03:52:32.364Z,93462.81
2023-02-18T03:55:36.045Z,93462.25
2023-02-18T03:58:40.017Z,93465.50
2023-02-18T04:01:43.163Z,93461.03
2023-02-18T04:04:47.093Z,93457.81
2023-02-18T04:07:50.760Z,93452.53
2023-02-18T04:10:54.885Z,93443.00
2023-02-18T04:13:58.498Z,93435.41
2023-02-18T04:17:01.946Z,93432.88
2023-02-18T04:20:05.715Z,93426.38
2023-02-18T04:23:09.303Z,93414.69
2023-02-18T04:26:12.638Z,93410.47
2023-02-18T04:29:16.291Z,93402.34
2023-02-18T04:32:19.882Z,93397.16
2023-02-18T04:35:23.631Z,93386.66
2023-02-18T04:38:27.227Z,93389.38
2023-02-18T04:41:30.620Z,93376.81
2023-02-18T04:44:33.512Z,93372.25
2023-02-18T04:47:36.469Z,93374.94
2023-02-18T04:50:39.390Z,93371.41
2023-02-18T04:53:42.743Z,93366.69
2023-02-18T04:56:45.563Z,93360.84
2023-02-18T04:59:49.321Z,93352.59
2023-02-18T05:02:52.995Z,93345.59
2023-02-18T05:05:56.705Z,93343.22
2023-02-18T05:09:01.016Z,93338.66
2023-02-18T05:12:04.126Z,93332.41
2023-02-18T05:15:08.636Z,93330.03
2023-02-18T05:18:12.238Z,93333.53
2023-02-18T05:21:15.867Z,93321.97
2023-02-18T05:24:18.804Z,93318.31
2023-02-18T05:27:22.155Z,93317.69
2023-02-18T05:30:25.364Z,93303.00
2023-02-18T05:33:28.766Z,93307.00
2023-02-18T05:36:32.355Z,93303.72
2023-02-18T05:39:35.644Z,93302.50
2023-02-18T05:42:39.549Z,93293.81
2023-02-18T05:45:43.404Z,93295.13
2023-02-18T05:48:46.260Z,93292.78
2023-02-18T05:51:49.966Z,93293.94
2023-02-18T05:54:53.264Z,93287.44
2023-02-18T05:57:56.875Z,93283.72
2023-02-18T06:01:00.424Z,93283.28
2023-02-18T06:04:04.408Z,93285.91
2023-02-18T06:07:08.508Z,93278.44
2023-02-18T06:10:12.849Z,93286.53
2023-02-18T06:13:16.011Z,93283.44
2023-02-18T06:16:19.481Z,93278.41
2023-02-18T06:19:23.701Z,93275.47
2023-02-18T06:22:27.800Z,93277.75
2023-02-18T06:25:30.625Z,93274.03
2023-02-18T06:28:34.800Z,93276.13
2023-02-18T06:31:38.672Z,93277.53
2023-02-18T06:34:42.701Z,93270.16
2023-02-18T06:37:46.966Z,93269.97
2023-02-18T06:40:50.353Z,93271.16
2023-02-18T06:43:53.409Z,93274.03
2023-02-18T06:46:57.389Z,93269.66
2023-02-18T06:50:01.054Z,93268.00
2023-02-18T06:53:04.969Z,93269.94
2023-02-18T06:56:09.021Z,93262.47
2023-02-18T06:59:13.280Z,93256.59
2023-02-18T07:02:16.847Z,93250.59
2023-02-18T07:05:20.403Z,93240.31
2023-02-18T07:08:24.174Z,93226.72
2023-02-18T07:11:27.873Z,93243.88
2023-02-18T07:14:30.805Z,93237.97
2023-02-18T07:17:34.287Z,93246.44
2023-02-18T07:20:37.972Z,93258.94
2023-02-18T07:23:41.927Z,93267.78
2023-02-18T07:26:45.519Z,93261.94
2023-02-18T07:29:50.339Z,93277.94
2023-02-18T07:32:53.914Z,93270.19
2023-02-18T07:35:59.409Z,93270.31
2023-02-18T07:39:02.328Z,93280.53
2023-02-18T07:42:06.438Z,93280.56
2023-02-18T07:45:10.965Z,93292.78
2023-02-18T07:48:14.535Z,93295.88
2023-02-18T07:51:18.246Z,93295.25
2023-02-18T07:54:21.742Z,93296.91
2023-02-18T07:57:24.960Z,93309.66
2023-02-18T08:00:28.699Z,93310.56
2023-02-18T08:03:33.115Z,93308.69
2023-02-18T08:06:42.515Z,93314.78
2023-02-18T08:09:45.516Z,93325.97
2023-02-18T08:12:49.209Z,93331.38
2023-02-18T08:15:55.106Z,93324.19
2023-02-18T08:18:58.805Z,93335.22
2023-02-18T08:22:04.712Z,93335.44
2023-02-18T08:25:08.380Z,93334.25
2023-02-18T08:28:13.899Z,93323.50
2023-02-18T08:31:26.054Z,93333.03
2023-02-18T08:34:29.700Z,93339.03
2023-02-18T08:37:52.991Z,93345.41
2023-02-18T08:41:05.652Z,93343.84
2023-02-18T08:44:09.680Z,93338.94
2023-02-18T08:48:16.817Z,93333.56
2023-02-18T08:50:37.198Z,93346.56
2023-02-18T08:53:40.643Z,93349.41
2023-02-18T08:56:44.421Z,93358.91
2023-02-18T08:59:47.436Z,93348.03
2023-02-18T09:02:50.789Z,93360.81
2023-02-18T09:05:54.365Z,93355.75
2023-02-18T09:08:58.440Z,93355.09
2023-02-18T09:12:02.186Z,93358.53
2023-02-18T09:15:06.977Z,93356.22
2023-02-18T09:18:10.627Z,93357.34
2023-02-18T09:21:16.906Z,93360.00
2023-02-18T09:24:22.551Z,93365.53
2023-02-18T09:27:25.992Z,93375.34
2023-02-18T09:30:29.128Z,93368.13
2023-02-18T09:33:33.116Z,93375.41
2023-02-18T09:36:36.741Z,93372.91
2023-02-18T09:39:40.714Z,93374.75
2023-02-18T09:42:44.856Z,93379.56
2023-02-18T09:45:48.796Z,93375.09
2023-02-18T09:48:53.755Z,93378.88
2023-02-18T09:51:58.397Z,93382.44
2023-02-18T09:55:03.793Z,93381.38
2023-02-18T09:58:15.615Z,93390.69
2023-02-18T10:01:38.022Z,93388.53
2023-02-18T10:04:46.850Z,93389.38
2023-02-18T10:07:54.481Z,93391.34
2023-02-18T10:10:57.952Z,93401.25
2023-02-18T10:14:03.397Z,93404.53
2023-02-18T10:17:08.248Z,93406.31
2023-02-18T10:20:21.015Z,93410.81
2023-02-18T10:23:25.903Z,93405.69
2023-02-18T10:26:32.374Z,93408.09
2023-02-18T10:29:37.626Z,93413.44
2023-02-18T10:32:45.019Z,93416.25
2023-02-18T10:35:57.305Z,93416.72
2023-02-18T10:39:19.462Z,93415.34
2023-02-18T10:42:32.245Z,93423.50
2023-02-18T10:46:25.166Z,93428.78
2023-02-18T10:49:49.948Z,93434.53
2023-02-18T10:52:57.195Z,93432.31
2023-02-18T10:56:01.122Z,93428.66
2023-02-18T10:59:31.214Z,93444.97
2023-02-18T11:02:35.120Z,93436.19
2023-02-18T11:05:39.757Z,93438.19
2023-02-18T11:08:46.169Z,93443.47
2023-02-18T11:11:53.661Z,93441.84
2023-02-18T11:15:19.594Z,93450.19
2023-02-18T11:18:43.729Z,93447.78
2023-02-18T11:21:47.116Z,93449.56
2023-02-18T11:24:56.750Z,93445.56
2023-02-18T11:28:22.469Z,93452.50
2023-02-18T11:31:28.387Z,93448.63
2023-02-18T11:34:34.039Z,93451.31
2023-02-18T11:37:38.763Z,93457.91
2023-02-18T11:40:41.820Z,93461.88
2023-02-18T11:43:49.896Z,93461.47
2023-02-18T11:47:15.932Z,93459.16
2023-02-18T11:50:23.686Z,93464.50
2023-02-18T11:53:36.470Z,93466.78
2023-02-18T12:00:22.687Z,93465.50
2023-02-18T12:04:13.774Z,93473.03
2023-02-18T12:07:38.375Z,93470.00
2023-02-18T12:10:50.799Z,93479.09
2023-02-18T12:13:58.009Z,93478.56
2023-02-18T12:17:13.658Z,93480.97
2023-02-18T12:20:35.693Z,93486.97
2023-02-18T12:24:04.891Z,93481.22
2023-02-18T12:27:21.254Z,93484.22
2023-02-18T12:30:58.832Z,93485.94
2023-02-18T12:34:20.600Z,93486.75
2023-02-18T12:37:49.131Z,93493.59
2023-02-18T12:41:07.393Z,93506.25
2023-02-18T12:44:32.237Z,93497.88
2023-02-18T12:47:47.774Z,93503.06
2023-02-18T12:51:24.342Z,93512.50
2023-02-18T12:54:54.514Z,93510.72
2023-02-18T12:58:25.683Z,93508.97
2023-02-18T13:01:44.394Z,93513.19
2023-02-18T13:05:12.375Z,93513.19
2023-02-18T13:08:40.036Z,93513.81
2023-02-18T13:12:09.080Z,93512.09
2023-02-18T13:15:19.596Z,93512.19
2023-02-18T13:18:32.012Z,93506.56
2023-02-18T13:21:38.705Z,93510.16
2023-02-18T13:24:46.279Z,93510.03
2023-02-18T13:28:03.958Z,93518.25
2023-02-18T13:31:25.207Z,93522.41
2023-02-18T13:34:33.862Z,93519.00
2023-02-18T13:37:47.878Z,93525.34
2023-02-18T13:40:52.263Z,93531.25
2023-02-18T13:43:55.677Z,93533.19
2023-02-18T13:47:00.187Z,93536.13
2023-02-18T13:50:22.827Z,93543.94
2023-02-18T13:53:26.992Z,93551.25
2023-02-18T13:56:32.917Z,93552.13
2023-02-18T13:59:47.018Z,93556.75
2023-02-18T14:03:19.890Z,93558.97
2023-02-18T14:06:28.119Z,93562.53
2023-02-18T14:09:42.729Z,93564.31
2023-02-18T14:12:58.461Z,93570.66
2023-02-18T14:16:02.795Z,93573.75
2023-02-18T14:19:25.615Z,93575.94
2023-02-18T14:22:40.933Z,93579.47
2023-02-18T14:26:06.376Z,93584.19
2023-02-18T14:32:42.556Z,93590.63
2023-02-18T14:36:28.578Z,93600.66
2023-02-18T14:40:12.591Z,93603.72
2023-02-18T14:43:27.053Z,93609.38
2023-02-18T14:46:49.191Z,93616.44
2023-02-18T14:50:04.616Z,93618.28
2023-02-18T14:53:19.338Z,93617.97
2023-02-18T14:56:23.998Z,93622.19
2023-02-18T14:59:30.453Z,93627.03
2023-02-18T15:02:39.464Z,93627.16
2023-02-18T15:05:44.594Z,93632.44
2023-02-18T15:08:49.603Z,93632.00
2023-02-18T15:12:05.049Z,93635.34
2023-02-18T15:15:14.827Z,93637.16
2023-02-18T15:18:24.648Z,93638.38
2023-02-18T15:21:45.690Z,93640.13
2023-02-18T15:24:50.854Z,93639.38
2023-02-18T15:27:55.844Z,93644.50
2023-02-18T15:31:01.851Z,93651.81
2023-02-18T15:34:30.626Z,93656.97
2023-02-18T15:37:33.553Z,93661.34
2023-02-18T15:40:41.368Z,93663.88
2023-02-18T15:44:01.570Z,93667.13
2023-02-18T15:47:09.588Z,93670.56
2023-02-18T15:50:22.669Z,93680.19
2023-02-18T15:53:27.030Z,93682.00
2023-02-18T15:56:36.361Z,93680.72
2023-02-18T15:59:46.420Z,93689.81
2023-02-18T16:02:56.854Z,93690.72
2023-02-18T16:06:13.512Z,93691.03
2023-02-18T16:09:24.960Z,93694.66
2023-02-18T16:12:32.457Z,93690.00
2023-02-18T16:15:42.834Z,93686.22
2023-02-18T16:18:46.934Z,93693.50
2023-02-18T16:21:50.259Z,93698.00
2023-02-18T16:25:01.104Z,93695.25
2023-02-18T16:28:04.164Z,93702.88
2023-02-18T16:31:07.883Z,93703.47
2023-02-18T16:34:11.617Z,93712.06
2023-02-18T16:37:33.878Z,93710.34
2023-02-18T16:40:41.125Z,93716.50
2023-02-18T16:43:45.408Z,93714.91
2023-02-18T16:46:49.209Z,93718.72
2023-02-18T16:49:52.888Z,93724.16
2023-02-18T16:52:56.610Z,93718.34
2023-02-18T16:56:01.774Z,93727.66
2023-02-18T16:59:06.023Z,93734.22
2023-02-18T17:02:21.032Z,93742.53
2023-02-18T17:05:31.030Z,93747.41
2023-02-18T17:08:34.316Z,93745.53
2023-02-18T17:11:37.387Z,93746.47
2023-02-18T17:14:41.465Z,93754.78
2023-02-18T17:17:45.050Z,93757.38
2023-02-18T17:20:50.026Z,93765.16
2023-02-18T17:23:53.542Z,93770.28
2023-02-18T17:26:57.109Z,93774.75
2023-02-18T17:30:00.122Z,93775.41
2023-02-18T17:33:05.129Z,93779.00
2023-02-18T17:36:10.857Z,93778.69
2023-02-18T17:39:16.569Z,93790.03
2023-02-18T17:42:21.116Z,93792.47
2023-02-18T17:45:41.309Z,93795.16
2023-02-18T17:48:46.361Z,93804.31
2023-02-18T17:51:50.553Z,93804.59
2023-02-18T17:54:53.416Z,93804.16
2023-02-18T17:57:57.087Z,93807.09
2023-02-18T18:01:00.350Z,93804.72
2023-02-18T18:04:03.663Z,93819.25
2023-02-18T18:07:07.676Z,93819.63
2023-02-18T18:10:11.007Z,93821.00
2023-02-18T18:13:24.597Z,93824.56
2023-02-18T18:16:28.264Z,93828.66
2023-02-18T18:19:32.722Z,93830.41
2023-02-18T18:22:36.033Z,93840.94
2023-02-18T18:25:41.182Z,93835.56
2023-02-18T18:28:44.466Z,93854.31
2023-02-18T18:31:48.249Z,93862.13
2023-02-18T18:34:52.161Z,93865.19
2023-02-18T18:37:56.233Z,93869.59
2023-02-18T18:40:59.632Z,93875.53
2023-02-18T18:44:05.136Z,93872.00
2023-02-18T18:47:08.356Z,93878.22
2023-02-18T18:50:12.204Z,93884.94
2023-02-18T18:53:30.944Z,93887.41
2023-02-18T18:56:35.196Z,93892.81
2023-02-18T18:59:38.624Z,93889.97
2023-02-18T19:02:42.452Z,93904.78
2023-02-18T19:05:48.097Z,93915.94
2023-02-18T19:08:51.787Z,93899.06
2023-02-18T19:11:56.432Z,93911.34
2023-02-18T19:15:00.062Z,93915.63
2023-02-18T19:18:04.002Z,93909.88
2023-02-18T19:21:07.942Z,93909.63
2023-02-18T19:24:12.154Z,93912.19
2023-02-18T19:27:17.763Z,93917.66
2023-02-18T19:30:24.002Z,93925.31
2023-02-18T19:33:27.700Z,93923.69
2023-02-18T19:36:31.641Z,93910.38
2023-02-18T19:39:36.286Z,93919.00
2023-02-18T19:42:40.295Z,93920.72
2023-02-18T19:45:46.201Z,93921.78
2023-02-18T19:48:52.838Z,93925.31
2023-02-18T19:51:57.917Z,93927.94
2023-02-18T19:55:01.533Z,93929.94
2023-02-18T19:58:05.398Z,93931.94
2023-02-18T20:01:15.662Z,93928.72
2023-02-18T20:04:19.628Z,93944.22
2023-02-18T20:07:23.445Z,93940.59
2023-02-18T20:10:27.122Z,93939.59
2023-02-18T20:13:30.665Z,93948.69
2023-02-18T20:16:34.610Z,93953.66
2023-02-18T20:19:38.692Z,93958.47
2023-02-18T20:22:42.913Z,93962.44
2023-02-18T20:25:48.157Z,93968.16
2023-02-18T20:28:52.468Z,93964.88
2023-02-18T20:31:56.984Z,93971.03
2023-02-18T20:35:01.400Z,93974.72
2023-02-18T20:38:04.993Z,93973.53
2023-02-18T20:41:12.493Z,93977.75
2023-02-18T20:44:16.724Z,93978.50
2023-02-18T20:47:20.279Z,93979.06
2023-02-18T20:50:24.682Z,93990.75
2023-02-18T20:53:32.420Z,93991.28
2023-02-18T20:56:38.413Z,93996.00
2023-02-18T20:59:42.232Z,94000.75
2023-02-18T21:02:45.293Z,93990.81
2023-02-18T21:05:56.430Z,94000.25
2023-02-18T21:09:00.134Z,94005.69
2023-02-18T21:12:04.214Z,94007.16
2023-02-18T21:15:08.176Z,93995.31
2023-02-18T21:18:12.085Z,94008.19
2023-02-18T21:21:16.144Z,94011.16
2023-02-18T21:24:20.204Z,94022.53
2023-02-18T21:27:23.897Z,94016.81
2023-02-18T21:30:28.370Z,94017.84
2023-02-18T21:33:32.353Z,94029.22
2023-02-18T21:36:36.020Z,94041.38
2023-02-18T21:39:38.915Z,94032.94
2023-02-18T21:42:42.538Z,94030.22
2023-02-18T21:45:45.485Z,94041.13
2023-02-18T21:49:09.993Z,94045.28
2023-02-18T21:52:13.764Z,94050.63
2023-02-18T21:55:17.364Z,94057.56
2023-02-18T21:58:20.569Z,94064.22
2023-02-18T22:01:26.476Z,94063.03
2023-02-18T22:04:32.950Z,94067.97
2023-02-18T22:07:36.855Z,94074.38
2023-02-18T22:10:40.810Z,94074.84
2023-02-18T22:13:44.979Z,94076.50
2023-02-18T22:16:49.081Z,94078.28
2023-02-18T22:19:53.106Z,94085.00
2023-02-18T22:22:56.745Z,94087.50
2023-02-18T22:26:07.294Z,94095.91
2023-02-18T22:29:12.404Z,94106.63
2023-02-18T22:32:16.296Z,94106.63
2023-02-18T22:35:19.906Z,94103.03
2023-02-18T22:38:23.846Z,94101.34
2023-02-18T22:41:29.643Z,94107.22
2023-02-18T22:44:32.977Z,94113.56
2023-02-18T22:47:36.568Z,94112.09
2023-02-18T22:50:40.239Z,94123.44
2023-02-18T22:53:44.977Z,94123.72
2023-02-18T22:56:48.908Z,94123.25
2023-02-18T22:59:52.599Z,94131.28
2023-02-18T23:02:56.262Z,94136.50
2023-02-18T23:06:07.089Z,94146.78
2023-02-18T23:09:15.661Z,94135.13
2023-02-18T23:12:18.900Z,94140.13
2023-02-18T23:15:21.862Z,94149.75
2023-02-18T23:18:25.150Z,94152.88
2023-02-18T23:21:29.188Z,94154.25
2023-02-18T23:24:39.251Z,94151.91
2023-02-18T23:27:42.194Z,94160.19
2023-02-18T23:30:45.523Z,94172.78
2023-02-18T23:33:51.054Z,94179.78
2023-02-18T23:36:54.580Z,94182.00
2023-02-18T23:39:58.174Z,94192.91
2023-02-18T23:43:01.480Z,94199.09
2023-02-18T23:46:04.617Z,94196.34
2023-02-18T23:49:08.137Z,94199.22
2023-02-18T23:52:11.757Z,94203.19
2023-02-18T23:55:14.609Z,94208.25
2023-02-18T23:58:18.562Z,94212.19
